SJD weather

Los Cabos International Airport
San José del Cabo, Baja California Sur, Mexico

Public forecast

Using degrees Celsius for public forecast. Weather courtesy of forecast.io.

Current aviation weather report (METAR) for Los Cabos International Airport

Report is more than 2 hours old.

Retrieved 2019/10/15 03:51 UTC (4 hours ago):

MMSD 150351Z 12005KT 10SM SCT200 25/23 A2988 RMK 8/004

Aviation forecast (TAF) for Los Cabos International Airport

Retrieved 2019/10/15 06:30 UTC (58 minutes ago):

TAF MMSD 150423Z 1506/1606 12005KT P6SM BKN250 FM151700 20005KT P6SM BKN200 BECMG 1602/1603 28010KT